sensor_id;sensor_type;location;lat;lon;timestamp;temperature;humidity
50989;DHT22;37008;52.210;21.112;2022-10-04T00:01:56;9.40;99.90
50989;DHT22;37008;52.210;21.112;2022-10-04T00:04:26;9.40;99.90
50989;DHT22;37008;52.210;21.112;2022-10-04T00:09:40;9.40;99.90
50989;DHT22;37008;52.210;21.112;2022-10-04T00:12:18;9.40;99.90
50989;DHT22;37008;52.210;21.112;2022-10-04T00:14:45;9.40;99.90
50989;DHT22;37008;52.210;21.112;2022-10-04T00:17:13;9.40;99.90
50989;DHT22;37008;52.210;21.112;2022-10-04T00:19:47;9.40;99.90
50989;DHT22;37008;52.210;21.112;2022-10-04T00:22:16;9.40;99.90
50989;DHT22;37008;52.210;21.112;2022-10-04T00:27:27;9.40;99.90
50989;DHT22;37008;52.210;21.112;2022-10-04T00:32:30;9.40;99.90
50989;DHT22;37008;52.210;21.112;2022-10-04T00:40:43;9.40;99.90
50989;DHT22;37008;52.210;21.112;2022-10-04T00:43:28;9.30;99.90
50989;DHT22;37008;52.210;21.112;2022-10-04T00:46:05;9.30;99.90
50989;DHT22;37008;52.210;21.112;2022-10-04T00:48:50;9.30;99.90
50989;DHT22;37008;52.210;21.112;2022-10-04T00:51:45;9.30;99.90
50989;DHT22;37008;52.210;21.112;2022-10-04T00:57:06;9.20;99.90
50989;DHT22;37008;52.210;21.112;2022-10-04T00:59:48;9.20;99.90
50989;DHT22;37008;52.210;21.112;2022-10-04T01:07:26;9.10;99.90
50989;DHT22;37008;52.210;21.112;2022-10-04T01:10:02;9.10;99.90
50989;DHT22;37008;52.210;21.112;2022-10-04T01:23:43;9.20;99.90
50989;DHT22;37008;52.210;21.112;2022-10-04T01:28:58;9.10;99.90
50989;DHT22;37008;52.210;21.112;2022-10-04T01:31:28;9.10;99.90
50989;DHT22;37008;52.210;21.112;2022-10-04T01:33:55;9.10;99.90
50989;DHT22;37008;52.210;21.112;2022-10-04T01:36:21;9.10;99.90
50989;DHT22;37008;52.210;21.112;2022-10-04T01:38:47;9.10;99.90
50989;DHT22;37008;52.210;21.112;2022-10-04T01:41:16;9.10;99.90
50989;DHT22;37008;52.210;21.112;2022-10-04T01:43:47;9.10;99.90
50989;DHT22;37008;52.210;21.112;2022-10-04T01:46:21;9.10;99.90
50989;DHT22;37008;52.210;21.112;2022-10-04T01:48:48;9.10;99.90
50989;DHT22;37008;52.210;21.112;2022-10-04T01:51:21;9.20;99.90
50989;DHT22;37008;52.210;21.112;2022-10-04T01:53:59;9.20;99.90
50989;DHT22;37008;52.210;21.112;2022-10-04T01:56:31;9.20;99.90
50989;DHT22;37008;52.210;21.112;2022-10-04T01:59:01;9.20;99.90
50989;DHT22;37008;52.210;21.112;2022-10-04T02:04:19;9.20;99.90
50989;DHT22;37008;52.210;21.112;2022-10-04T02:06:48;9.30;99.90
50989;DHT22;37008;52.210;21.112;2022-10-04T02:09:18;9.30;99.90
50989;DHT22;37008;52.210;21.112;2022-10-04T02:11:47;9.30;99.90
50989;DHT22;37008;52.210;21.112;2022-10-04T02:14:18;9.30;99.90
50989;DHT22;37008;52.210;21.112;2022-10-04T02:16:46;9.30;99.90
50989;DHT22;37008;52.210;21.112;2022-10-04T02:19:16;9.30;99.90
50989;DHT22;37008;52.210;21.112;2022-10-04T02:21:43;9.20;99.90
50989;DHT22;37008;52.210;21.112;2022-10-04T02:24:10;9.30;99.90
50989;DHT22;37008;52.210;21.112;2022-10-04T02:26:36;9.30;99.90
50989;DHT22;37008;52.210;21.112;2022-10-04T02:29:02;9.40;99.90
50989;DHT22;37008;52.210;21.112;2022-10-04T02:31:28;9.30;99.90
50989;DHT22;37008;52.210;21.112;2022-10-04T02:34:12;9.30;99.90
50989;DHT22;37008;52.210;21.112;2022-10-04T02:36:38;9.30;99.90
50989;DHT22;37008;52.210;21.112;2022-10-04T02:39:20;9.30;99.90
50989;DHT22;37008;52.210;21.112;2022-10-04T02:44:30;9.40;99.90
50989;DHT22;37008;52.210;21.112;2022-10-04T02:47:16;9.30;99.90
50989;DHT22;37008;52.210;21.112;2022-10-04T02:49:48;9.30;99.90
50989;DHT22;37008;52.210;21.112;2022-10-04T02:54:47;9.20;99.90
50989;DHT22;37008;52.210;21.112;2022-10-04T02:57:21;9.20;99.90
50989;DHT22;37008;52.210;21.112;2022-10-04T02:59:48;9.20;99.90
50989;DHT22;37008;52.210;21.112;2022-10-04T03:02:26;9.20;99.90
50989;DHT22;37008;52.210;21.112;2022-10-04T03:04:53;9.20;99.90
50989;DHT22;37008;52.210;21.112;2022-10-04T03:07:21;9.20;99.90
50989;DHT22;37008;52.210;21.112;2022-10-04T03:09:48;9.20;99.90
50989;DHT22;37008;52.210;21.112;2022-10-04T03:12:14;9.20;99.90
50989;DHT22;37008;52.210;21.112;2022-10-04T03:14:40;9.20;99.90
50989;DHT22;37008;52.210;21.112;2022-10-04T03:17:07;9.30;99.90
50989;DHT22;37008;52.210;21.112;2022-10-04T03:19:33;9.20;99.90
50989;DHT22;37008;52.210;21.112;2022-10-04T03:22:02;9.30;99.90
50989;DHT22;37008;52.210;21.112;2022-10-04T03:24:33;9.30;99.90
50989;DHT22;37008;52.210;21.112;2022-10-04T03:27:04;9.30;99.90
50989;DHT22;37008;52.210;21.112;2022-10-04T03:29:31;9.40;99.90
50989;DHT22;37008;52.210;21.112;2022-10-04T03:32:18;9.40;99.90
50989;DHT22;37008;52.210;21.112;2022-10-04T03:34:50;9.40;99.90
50989;DHT22;37008;52.210;21.112;2022-10-04T03:37:17;9.40;99.90
50989;DHT22;37008;52.210;21.112;2022-10-04T03:39:47;9.40;99.90
50989;DHT22;37008;52.210;21.112;2022-10-04T03:42:16;9.40;99.90
50989;DHT22;37008;52.210;21.112;2022-10-04T03:44:47;9.40;99.90
50989;DHT22;37008;52.210;21.112;2022-10-04T03:47:23;9.40;99.90
50989;DHT22;37008;52.210;21.112;2022-10-04T03:49:51;9.40;99.90
50989;DHT22;37008;52.210;21.112;2022-10-04T03:52:29;9.40;99.90
50989;DHT22;37008;52.210;21.112;2022-10-04T03:54:59;9.40;99.90
50989;DHT22;37008;52.210;21.112;2022-10-04T03:57:27;9.50;99.90
50989;DHT22;37008;52.210;21.112;2022-10-04T03:59:54;9.50;99.90
50989;DHT22;37008;52.210;21.112;2022-10-04T04:02:35;9.50;99.90
50989;DHT22;37008;52.210;21.112;2022-10-04T04:05:18;9.40;99.90
50989;DHT22;37008;52.210;21.112;2022-10-04T04:08:09;9.50;99.90
50989;DHT22;37008;52.210;21.112;2022-10-04T04:10:41;9.50;99.90
50989;DHT22;37008;52.210;21.112;2022-10-04T04:15:37;9.50;99.90
50989;DHT22;37008;52.210;21.112;2022-10-04T04:18:34;9.60;99.90
50989;DHT22;37008;52.210;21.112;2022-10-04T04:21:01;9.70;99.90
50989;DHT22;37008;52.210;21.112;2022-10-04T04:23:36;9.70;99.90
50989;DHT22;37008;52.210;21.112;2022-10-04T04:26:41;9.70;99.90
50989;DHT22;37008;52.210;21.112;2022-10-04T04:29:17;9.80;99.90
50989;DHT22;37008;52.210;21.112;2022-10-04T04:34:24;9.80;99.90
50989;DHT22;37008;52.210;21.112;2022-10-04T04:36:57;9.70;99.90
50989;DHT22;37008;52.210;21.112;2022-10-04T04:39:23;9.80;99.90
50989;DHT22;37008;52.210;21.112;2022-10-04T04:42:31;9.80;99.90
50989;DHT22;37008;52.210;21.112;2022-10-04T04:47:36;9.80;99.90
50989;DHT22;37008;52.210;21.112;2022-10-04T04:50:13;9.80;99.90
50989;DHT22;37008;52.210;21.112;2022-10-04T04:52:44;9.80;99.90
50989;DHT22;37008;52.210;21.112;2022-10-04T04:55:22;9.90;99.90
50989;DHT22;37008;52.210;21.112;2022-10-04T04:57:51;9.90;99.90
50989;DHT22;37008;52.210;21.112;2022-10-04T05:00:22;9.90;99.90
50989;DHT22;37008;52.210;21.112;2022-10-04T05:02:56;9.90;99.90
50989;DHT22;37008;52.210;21.112;2022-10-04T05:08:10;9.90;99.90
50989;DHT22;37008;52.210;21.112;2022-10-04T05:10:39;9.90;99.90
50989;DHT22;37008;52.210;21.112;2022-10-04T05:13:07;9.90;99.90
50989;DHT22;37008;52.210;21.112;2022-10-04T05:15:36;10.00;99.90
50989;DHT22;37008;52.210;21.112;2022-10-04T05:18:12;10.00;99.90
50989;DHT22;37008;52.210;21.112;2022-10-04T05:20:47;10.00;99.90
50989;DHT22;37008;52.210;21.112;2022-10-04T05:23:14;10.00;99.90
50989;DHT22;37008;52.210;21.112;2022-10-04T05:25:40;10.00;99.90
50989;DHT22;37008;52.210;21.112;2022-10-04T05:28:09;10.00;99.90
50989;DHT22;37008;52.210;21.112;2022-10-04T05:33:09;10.00;99.90
50989;DHT22;37008;52.210;21.112;2022-10-04T05:41:10;10.10;99.90
50989;DHT22;37008;52.210;21.112;2022-10-04T05:43:49;10.10;99.90
50989;DHT22;37008;52.210;21.112;2022-10-04T05:46:24;10.10;99.90
50989;DHT22;37008;52.210;21.112;2022-10-04T05:48:55;10.20;99.90
50989;DHT22;37008;52.210;21.112;2022-10-04T05:51:26;10.20;99.90
50989;DHT22;37008;52.210;21.112;2022-10-04T05:53:56;10.30;99.90
50989;DHT22;37008;52.210;21.112;2022-10-04T06:10:03;10.50;99.90
50989;DHT22;37008;52.210;21.112;2022-10-04T06:12:07;10.50;99.90
50989;DHT22;37008;52.210;21.112;2022-10-04T06:14:56;10.50;99.90
50989;DHT22;37008;52.210;21.112;2022-10-04T06:17:48;10.50;99.90
50989;DHT22;37008;52.210;21.112;2022-10-04T06:20:41;10.60;99.90
50989;DHT22;37008;52.210;21.112;2022-10-04T06:23:16;10.60;99.90
50989;DHT22;37008;52.210;21.112;2022-10-04T06:25:59;10.70;99.90
50989;DHT22;37008;52.210;21.112;2022-10-04T06:28:34;10.80;99.90
50989;DHT22;37008;52.210;21.112;2022-10-04T06:34:10;10.90;99.90
50989;DHT22;37008;52.210;21.112;2022-10-04T06:39:30;10.90;99.90
50989;DHT22;37008;52.210;21.112;2022-10-04T06:42:07;10.90;99.90
50989;DHT22;37008;52.210;21.112;2022-10-04T06:50:16;11.00;99.90
50989;DHT22;37008;52.210;21.112;2022-10-04T06:53:06;11.00;99.90
50989;DHT22;37008;52.210;21.112;2022-10-04T07:03:34;11.00;99.90
50989;DHT22;37008;52.210;21.112;2022-10-04T07:06:06;11.00;99.90
50989;DHT22;37008;52.210;21.112;2022-10-04T07:11:21;11.00;99.90
50989;DHT22;37008;52.210;21.112;2022-10-04T07:13:50;11.00;99.90
50989;DHT22;37008;52.210;21.112;2022-10-04T07:16:54;11.00;99.90
50989;DHT22;37008;52.210;21.112;2022-10-04T07:19:32;11.00;99.90
50989;DHT22;37008;52.210;21.112;2022-10-04T07:30:53;11.10;99.90
50989;DHT22;37008;52.210;21.112;2022-10-04T07:33:23;11.10;99.90
50989;DHT22;37008;52.210;21.112;2022-10-04T07:35:59;11.20;99.90
50989;DHT22;37008;52.210;21.112;2022-10-04T07:38:30;11.30;99.90
50989;DHT22;37008;52.210;21.112;2022-10-04T07:41:11;11.40;99.90
50989;DHT22;37008;52.210;21.112;2022-10-04T07:44:02;11.60;99.90
50989;DHT22;37008;52.210;21.112;2022-10-04T07:49:18;12.00;99.90
50989;DHT22;37008;52.210;21.112;2022-10-04T07:59:46;12.40;99.90
50989;DHT22;37008;52.210;21.112;2022-10-04T08:02:38;12.50;99.90
50989;DHT22;37008;52.210;21.112;2022-10-04T08:07:46;12.50;99.90
50989;DHT22;37008;52.210;21.112;2022-10-04T08:13:16;12.60;99.90
50989;DHT22;37008;52.210;21.112;2022-10-04T08:15:44;12.50;99.90
50989;DHT22;37008;52.210;21.112;2022-10-04T08:52:28;12.80;99.90
50989;DHT22;37008;52.210;21.112;2022-10-04T08:58:32;13.00;99.90
50989;DHT22;37008;52.210;21.112;2022-10-04T09:01:24;13.00;99.50
50989;DHT22;37008;52.210;21.112;2022-10-04T09:08:08;13.00;98.80
50989;DHT22;37008;52.210;21.112;2022-10-04T09:10:36;13.00;99.30
50989;DHT22;37008;52.210;21.112;2022-10-04T09:16:44;13.10;99.00
50989;DHT22;37008;52.210;21.112;2022-10-04T09:24:18;13.20;97.20
50989;DHT22;37008;52.210;21.112;2022-10-04T09:43:44;13.20;95.30
50989;DHT22;37008;52.210;21.112;2022-10-04T09:46:42;13.20;95.20
50989;DHT22;37008;52.210;21.112;2022-10-04T09:59:54;12.90;94.90
50989;DHT22;37008;52.210;21.112;2022-10-04T10:02:42;12.80;95.00
50989;DHT22;37008;52.210;21.112;2022-10-04T10:05:26;12.90;95.30
50989;DHT22;37008;52.210;21.112;2022-10-04T10:10:52;12.80;95.80
50989;DHT22;37008;52.210;21.112;2022-10-04T10:19:27;13.00;96.20
50989;DHT22;37008;52.210;21.112;2022-10-04T10:33:17;13.30;95.10
50989;DHT22;37008;52.210;21.112;2022-10-04T10:41:26;13.80;94.20
50989;DHT22;37008;52.210;21.112;2022-10-04T11:00:34;13.70;92.80
50989;DHT22;37008;52.210;21.112;2022-10-04T11:09:28;13.80;92.40
50989;DHT22;37008;52.210;21.112;2022-10-04T11:29:06;14.40;87.90
50989;DHT22;37008;52.210;21.112;2022-10-04T11:42:56;14.10;88.60
50989;DHT22;37008;52.210;21.112;2022-10-04T11:49:48;14.10;90.00
50989;DHT22;37008;52.210;21.112;2022-10-04T11:51:50;14.20;90.00
50989;DHT22;37008;52.210;21.112;2022-10-04T11:57:42;14.20;89.50
50989;DHT22;37008;52.210;21.112;2022-10-04T12:00:16;14.30;90.10
50989;DHT22;37008;52.210;21.112;2022-10-04T12:06:12;14.60;87.00
50989;DHT22;37008;52.210;21.112;2022-10-04T12:30:03;14.30;86.70
50989;DHT22;37008;52.210;21.112;2022-10-04T12:32:41;14.30;88.20
50989;DHT22;37008;52.210;21.112;2022-10-04T12:35:18;14.30;88.90
50989;DHT22;37008;52.210;21.112;2022-10-04T12:46:23;14.20;88.10
50989;DHT22;37008;52.210;21.112;2022-10-04T12:51:56;14.10;88.20
50989;DHT22;37008;52.210;21.112;2022-10-04T12:57:22;14.10;88.60
50989;DHT22;37008;52.210;21.112;2022-10-04T13:00:15;14.10;89.30
50989;DHT22;37008;52.210;21.112;2022-10-04T13:03:53;14.10;88.60
50989;DHT22;37008;52.210;21.112;2022-10-04T13:11:26;14.00;90.10
50989;DHT22;37008;52.210;21.112;2022-10-04T13:16:50;14.00;90.70
50989;DHT22;37008;52.210;21.112;2022-10-04T13:30:25;14.50;90.60
50989;DHT22;37008;52.210;21.112;2022-10-04T13:38:18;14.60;89.40
50989;DHT22;37008;52.210;21.112;2022-10-04T14:06:02;14.40;87.20
50989;DHT22;37008;52.210;21.112;2022-10-04T14:17:17;14.50;88.10
50989;DHT22;37008;52.210;21.112;2022-10-04T14:22:52;14.30;88.10
50989;DHT22;37008;52.210;21.112;2022-10-04T14:28:31;14.30;88.80
50989;DHT22;37008;52.210;21.112;2022-10-04T14:56:12;14.10;89.50
50989;DHT22;37008;52.210;21.112;2022-10-04T15:01:39;14.00;88.90
50989;DHT22;37008;52.210;21.112;2022-10-04T15:07:28;13.90;88.40
50989;DHT22;37008;52.210;21.112;2022-10-04T15:10:04;13.80;88.10
50989;DHT22;37008;52.210;21.112;2022-10-04T15:13:02;13.70;89.00
50989;DHT22;37008;52.210;21.112;2022-10-04T15:23:59;13.40;90.70
50989;DHT22;37008;52.210;21.112;2022-10-04T15:29:21;13.30;91.10
50989;DHT22;37008;52.210;21.112;2022-10-04T15:34:48;13.30;91.30
50989;DHT22;37008;52.210;21.112;2022-10-04T15:42:38;13.20;91.80
50989;DHT22;37008;52.210;21.112;2022-10-04T15:45:28;13.20;92.00
50989;DHT22;37008;52.210;21.112;2022-10-04T15:48:08;13.20;92.10
50989;DHT22;37008;52.210;21.112;2022-10-04T15:59:24;12.90;93.40
50989;DHT22;37008;52.210;21.112;2022-10-04T16:13:53;12.50;96.30
50989;DHT22;37008;52.210;21.112;2022-10-04T16:22:26;12.40;97.70
50989;DHT22;37008;52.210;21.112;2022-10-04T16:30:26;12.40;99.10
50989;DHT22;37008;52.210;21.112;2022-10-04T16:33:21;12.40;99.30
50989;DHT22;37008;52.210;21.112;2022-10-04T16:36:02;12.40;99.20
50989;DHT22;37008;52.210;21.112;2022-10-04T16:38:33;12.30;99.50
50989;DHT22;37008;52.210;21.112;2022-10-04T16:41:11;12.30;99.80
50989;DHT22;37008;52.210;21.112;2022-10-04T16:43:52;12.20;99.60
50989;DHT22;37008;52.210;21.112;2022-10-04T16:46:34;12.10;99.80
50989;DHT22;37008;52.210;21.112;2022-10-04T16:49:21;12.10;99.90
50989;DHT22;37008;52.210;21.112;2022-10-04T16:51:57;12.00;99.90
50989;DHT22;37008;52.210;21.112;2022-10-04T16:57:20;11.80;99.90
50989;DHT22;37008;52.210;21.112;2022-10-04T16:59:51;11.70;99.90
50989;DHT22;37008;52.210;21.112;2022-10-04T17:04:59;11.60;99.90
50989;DHT22;37008;52.210;21.112;2022-10-04T17:13:24;11.30;99.90
50989;DHT22;37008;52.210;21.112;2022-10-04T17:16:11;11.20;99.90
50989;DHT22;37008;52.210;21.112;2022-10-04T17:19:13;11.10;99.90
50989;DHT22;37008;52.210;21.112;2022-10-04T17:29:24;10.90;99.90
50989;DHT22;37008;52.210;21.112;2022-10-04T17:32:21;10.80;99.90
50989;DHT22;37008;52.210;21.112;2022-10-04T17:35:12;10.80;99.90
50989;DHT22;37008;52.210;21.112;2022-10-04T17:37:53;10.80;99.90
50989;DHT22;37008;52.210;21.112;2022-10-04T17:40:56;10.70;99.90
50989;DHT22;37008;52.210;21.112;2022-10-04T17:43:26;10.70;99.90
50989;DHT22;37008;52.210;21.112;2022-10-04T17:46:02;10.70;99.90
50989;DHT22;37008;52.210;21.112;2022-10-04T17:48:31;10.70;99.90
50989;DHT22;37008;52.210;21.112;2022-10-04T17:54:44;10.60;99.90
50989;DHT22;37008;52.210;21.112;2022-10-04T17:58:49;10.60;99.90
50989;DHT22;37008;52.210;21.112;2022-10-04T18:01:03;10.60;99.90
50989;DHT22;37008;52.210;21.112;2022-10-04T18:03:39;10.60;99.90
50989;DHT22;37008;52.210;21.112;2022-10-04T18:06:26;10.50;99.90
50989;DHT22;37008;52.210;21.112;2022-10-04T18:09:01;10.50;99.90
50989;DHT22;37008;52.210;21.112;2022-10-04T18:14:19;10.40;99.90
50989;DHT22;37008;52.210;21.112;2022-10-04T18:16:55;10.40;99.90
50989;DHT22;37008;52.210;21.112;2022-10-04T18:19:32;10.40;99.90
50989;DHT22;37008;52.210;21.112;2022-10-04T18:22:20;10.40;99.90
50989;DHT22;37008;52.210;21.112;2022-10-04T18:24:47;10.40;99.90
50989;DHT22;37008;52.210;21.112;2022-10-04T18:27:18;10.30;99.90
50989;DHT22;37008;52.210;21.112;2022-10-04T18:30:12;10.30;99.90
50989;DHT22;37008;52.210;21.112;2022-10-04T18:32:42;10.30;99.90
50989;DHT22;37008;52.210;21.112;2022-10-04T18:37:52;10.20;99.90
50989;DHT22;37008;52.210;21.112;2022-10-04T18:40:22;10.20;99.90
50989;DHT22;37008;52.210;21.112;2022-10-04T18:42:54;10.20;99.90
50989;DHT22;37008;52.210;21.112;2022-10-04T18:45:27;10.20;99.90
50989;DHT22;37008;52.210;21.112;2022-10-04T18:47:55;10.10;99.90
50989;DHT22;37008;52.210;21.112;2022-10-04T18:50:30;10.10;99.90
50989;DHT22;37008;52.210;21.112;2022-10-04T18:53:03;10.10;99.90
50989;DHT22;37008;52.210;21.112;2022-10-04T18:55:40;10.10;99.90
50989;DHT22;37008;52.210;21.112;2022-10-04T19:04:01;10.10;99.90
50989;DHT22;37008;52.210;21.112;2022-10-04T19:06:32;10.00;99.90
50989;DHT22;37008;52.210;21.112;2022-10-04T19:11:51;10.00;99.90
50989;DHT22;37008;52.210;21.112;2022-10-04T19:14:42;10.00;99.90
50989;DHT22;37008;52.210;21.112;2022-10-04T19:23:26;9.90;99.90
50989;DHT22;37008;52.210;21.112;2022-10-04T19:26:00;9.90;99.90
50989;DHT22;37008;52.210;21.112;2022-10-04T19:28:30;9.90;99.90
50989;DHT22;37008;52.210;21.112;2022-10-04T19:34:02;9.80;99.90
50989;DHT22;37008;52.210;21.112;2022-10-04T19:42:12;9.70;99.90
50989;DHT22;37008;52.210;21.112;2022-10-04T19:44:50;9.70;99.90
50989;DHT22;37008;52.210;21.112;2022-10-04T19:50:18;9.70;99.90
50989;DHT22;37008;52.210;21.112;2022-10-04T19:53:18;9.70;99.90
50989;DHT22;37008;52.210;21.112;2022-10-04T19:55:57;9.60;99.90
50989;DHT22;37008;52.210;21.112;2022-10-04T20:01:11;9.50;99.90
50989;DHT22;37008;52.210;21.112;2022-10-04T20:03:37;9.50;99.90
50989;DHT22;37008;52.210;21.112;2022-10-04T20:06:03;9.40;99.90
50989;DHT22;37008;52.210;21.112;2022-10-04T20:08:57;9.40;99.90
50989;DHT22;37008;52.210;21.112;2022-10-04T20:22:24;9.30;99.90
50989;DHT22;37008;52.210;21.112;2022-10-04T20:27:58;9.30;99.90
50989;DHT22;37008;52.210;21.112;2022-10-04T20:30:22;9.40;99.90
50989;DHT22;37008;52.210;21.112;2022-10-04T20:38:17;9.30;99.90
50989;DHT22;37008;52.210;21.112;2022-10-04T20:40:43;9.30;99.90
50989;DHT22;37008;52.210;21.112;2022-10-04T20:45:49;9.30;99.90
50989;DHT22;37008;52.210;21.112;2022-10-04T20:48:25;9.30;99.90
50989;DHT22;37008;52.210;21.112;2022-10-04T20:50:51;9.30;99.90
50989;DHT22;37008;52.210;21.112;2022-10-04T20:53:25;9.30;99.90
50989;DHT22;37008;52.210;21.112;2022-10-04T20:56:49;9.30;99.90
50989;DHT22;37008;52.210;21.112;2022-10-04T20:59:00;9.30;99.90
50989;DHT22;37008;52.210;21.112;2022-10-04T21:01:33;9.20;99.90
50989;DHT22;37008;52.210;21.112;2022-10-04T21:06:56;9.20;99.90
50989;DHT22;37008;52.210;21.112;2022-10-04T21:09:23;9.20;99.90
50989;DHT22;37008;52.210;21.112;2022-10-04T21:11:51;9.20;99.90
50989;DHT22;37008;52.210;21.112;2022-10-04T21:14:36;9.20;99.90
50989;DHT22;37008;52.210;21.112;2022-10-04T21:19:52;9.10;99.90
50989;DHT22;37008;52.210;21.112;2022-10-04T21:24:57;9.10;99.90
50989;DHT22;37008;52.210;21.112;2022-10-04T21:29:55;9.10;99.90
50989;DHT22;37008;52.210;21.112;2022-10-04T21:32:22;9.10;99.90
50989;DHT22;37008;52.210;21.112;2022-10-04T21:34:48;9.00;99.90
50989;DHT22;37008;52.210;21.112;2022-10-04T21:37:14;9.00;99.90
50989;DHT22;37008;52.210;21.112;2022-10-04T21:39:40;9.00;99.90
50989;DHT22;37008;52.210;21.112;2022-10-04T21:42:06;8.90;99.90
50989;DHT22;37008;52.210;21.112;2022-10-04T21:44:31;8.90;99.90
50989;DHT22;37008;52.210;21.112;2022-10-04T21:46:57;8.90;99.90
50989;DHT22;37008;52.210;21.112;2022-10-04T21:49:22;8.90;99.90
50989;DHT22;37008;52.210;21.112;2022-10-04T21:51:48;8.90;99.90
50989;DHT22;37008;52.210;21.112;2022-10-04T21:54:14;8.90;99.90
50989;DHT22;37008;52.210;21.112;2022-10-04T21:56:39;8.90;99.90
50989;DHT22;37008;52.210;21.112;2022-10-04T21:59:05;8.80;99.90
50989;DHT22;37008;52.210;21.112;2022-10-04T22:01:30;8.70;99.90
50989;DHT22;37008;52.210;21.112;2022-10-04T22:03:56;8.70;99.90
50989;DHT22;37008;52.210;21.112;2022-10-04T22:06:21;8.60;99.90
50989;DHT22;37008;52.210;21.112;2022-10-04T22:08:48;8.60;99.90
50989;DHT22;37008;52.210;21.112;2022-10-04T22:11:14;8.60;99.90
50989;DHT22;37008;52.210;21.112;2022-10-04T22:13:39;8.50;99.90
50989;DHT22;37008;52.210;21.112;2022-10-04T22:16:06;8.50;99.90
50989;DHT22;37008;52.210;21.112;2022-10-04T22:18:32;8.40;99.90
50989;DHT22;37008;52.210;21.112;2022-10-04T22:20:58;8.40;99.90
50989;DHT22;37008;52.210;21.112;2022-10-04T22:23:26;8.40;99.90
50989;DHT22;37008;52.210;21.112;2022-10-04T22:25:53;8.40;99.90
50989;DHT22;37008;52.210;21.112;2022-10-04T22:28:27;8.30;99.90
50989;DHT22;37008;52.210;21.112;2022-10-04T22:30:53;8.40;99.90
50989;DHT22;37008;52.210;21.112;2022-10-04T22:33:34;8.40;99.90
50989;DHT22;37008;52.210;21.112;2022-10-04T22:41:19;8.50;99.90
50989;DHT22;37008;52.210;21.112;2022-10-04T22:43:46;8.50;99.90
50989;DHT22;37008;52.210;21.112;2022-10-04T22:46:15;8.50;99.90
50989;DHT22;37008;52.210;21.112;2022-10-04T22:48:43;8.50;99.90
50989;DHT22;37008;52.210;21.112;2022-10-04T22:51:13;8.60;99.90
50989;DHT22;37008;52.210;21.112;2022-10-04T22:53:41;8.50;99.90
50989;DHT22;37008;52.210;21.112;2022-10-04T22:56:08;8.60;99.90
50989;DHT22;37008;52.210;21.112;2022-10-04T22:58:34;8.50;99.90
50989;DHT22;37008;52.210;21.112;2022-10-04T23:00:59;8.60;99.90
50989;DHT22;37008;52.210;21.112;2022-10-04T23:03:31;8.60;99.90
50989;DHT22;37008;52.210;21.112;2022-10-04T23:06:00;8.50;99.90
50989;DHT22;37008;52.210;21.112;2022-10-04T23:08:26;8.50;99.90
50989;DHT22;37008;52.210;21.112;2022-10-04T23:10:56;8.50;99.90
50989;DHT22;37008;52.210;21.112;2022-10-04T23:13:23;8.50;99.90
50989;DHT22;37008;52.210;21.112;2022-10-04T23:15:50;8.40;99.90
50989;DHT22;37008;52.210;21.112;2022-10-04T23:18:17;8.40;99.90
50989;DHT22;37008;52.210;21.112;2022-10-04T23:20:47;8.40;99.90
50989;DHT22;37008;52.210;21.112;2022-10-04T23:23:14;8.40;99.90
50989;DHT22;37008;52.210;21.112;2022-10-04T23:25:46;8.40;99.90
50989;DHT22;37008;52.210;21.112;2022-10-04T23:28:17;8.40;99.90
50989;DHT22;37008;52.210;21.112;2022-10-04T23:30:44;8.40;99.90
50989;DHT22;37008;52.210;21.112;2022-10-04T23:33:16;8.30;99.90
50989;DHT22;37008;52.210;21.112;2022-10-04T23:35:42;8.30;99.90
50989;DHT22;37008;52.210;21.112;2022-10-04T23:38:16;8.30;99.90
50989;DHT22;37008;52.210;21.112;2022-10-04T23:40:43;8.40;99.90
50989;DHT22;37008;52.210;21.112;2022-10-04T23:43:29;8.40;99.90
50989;DHT22;37008;52.210;21.112;2022-10-04T23:45:56;8.40;99.90
50989;DHT22;37008;52.210;21.112;2022-10-04T23:48:26;8.40;99.90
50989;DHT22;37008;52.210;21.112;2022-10-04T23:50:55;8.40;99.90
50989;DHT22;37008;52.210;21.112;2022-10-04T23:53:24;8.40;99.90
50989;DHT22;37008;52.210;21.112;2022-10-04T23:55:56;8.40;99.90
50989;DHT22;37008;52.210;21.112;2022-10-04T23:58:29;8.40;99.90
